Time;durP1;ratioP1;P1;durP2;ratioP2;P2;SDS_P1;SDS_P2;PMS_P1;PMS_P2;Temp;Humidity;BMP_temperature;BMP_pressure;BME280_temperature;BME280_humidity;BME280_pressure;Samples;Min_cycle;Max_cycle;Signal;HPM_P1;HPM_P2
2022/10/12 00:00:57;;;;;;;4.15;1.88;;;;;;;;;;5075042;28;20149;-77
2022/10/12 00:03:26;;;;;;;9.48;2.10;;;;;;;;;;5076408;28;20045;-77
2022/10/12 00:06:04;;;;;;;6.10;2.35;;;;;;;;;;5089443;28;20055;-77
2022/10/12 00:08:34;;;;;;;5.97;2.38;;;;;;;;;;5085107;28;20040;-77
2022/10/12 00:11:02;;;;;;;4.50;2.70;;;;;;;;;;5086263;28;20053;-76
2022/10/12 00:13:31;;;;;;;3.95;2.05;;;;;;;;;;5082401;28;20040;-77
2022/10/12 00:16:02;;;;;;;7.30;2.50;;;;;;;;;;5090616;28;20047;-75
2022/10/12 00:18:31;;;;;;;2.22;1.70;;;;;;;;;;5083966;28;20049;-77
2022/10/12 00:21:02;;;;;;;4.63;1.90;;;;;;;;;;5074479;28;20057;-77
2022/10/12 00:23:31;;;;;;;3.47;1.65;;;;;;;;;;5084340;28;20036;-77
2022/10/12 00:26:03;;;;;;;9.38;4.18;;;;;;;;;;5078559;28;20044;-77
2022/10/12 00:28:31;;;;;;;7.45;2.38;;;;;;;;;;5082969;28;20048;-76
2022/10/12 00:31:00;;;;;;;8.05;2.28;;;;;;;;;;5091796;28;20044;-76
2022/10/12 00:33:28;;;;;;;4.82;2.72;;;;;;;;;;5073509;28;20052;-77
2022/10/12 00:35:56;;;;;;;3.70;1.83;;;;;;;;;;5086477;28;20044;-77
2022/10/12 00:38:25;;;;;;;7.60;2.63;;;;;;;;;;5086488;28;20045;-77
2022/10/12 00:40:53;;;;;;;8.88;2.90;;;;;;;;;;5076995;28;20044;-77
2022/10/12 00:43:34;;;;;;;7.25;2.53;;;;;;;;;;5083682;28;20049;-76
2022/10/12 00:46:04;;;;;;;11.07;2.50;;;;;;;;;;5075839;28;20051;-77
2022/10/12 00:48:32;;;;;;;7.22;2.08;;;;;;;;;;5086626;28;20048;-77
2022/10/12 00:51:02;;;;;;;8.30;2.65;;;;;;;;;;5088050;28;20040;-77
2022/10/12 00:53:35;;;;;;;7.10;2.20;;;;;;;;;;5086286;28;20047;-77
2022/10/12 00:56:05;;;;;;;6.20;2.25;;;;;;;;;;5076124;28;20474;-77
2022/10/12 00:58:35;;;;;;;4.85;2.95;;;;;;;;;;5082596;28;20375;-78
2022/10/12 01:01:03;;;;;;;3.22;1.88;;;;;;;;;;5074066;28;20044;-75
2022/10/12 01:03:32;;;;;;;4.70;2.83;;;;;;;;;;5073221;28;20054;-77
2022/10/12 01:06:00;;;;;;;4.13;2.25;;;;;;;;;;5087299;28;20124;-77
2022/10/12 01:08:29;;;;;;;8.23;3.03;;;;;;;;;;5090848;28;20054;-79
2022/10/12 01:10:57;;;;;;;7.85;2.25;;;;;;;;;;5078620;28;20557;-78
2022/10/12 01:13:26;;;;;;;12.05;3.45;;;;;;;;;;5084760;28;20418;-78
2022/10/12 01:15:59;;;;;;;7.78;3.78;;;;;;;;;;5087581;28;20048;-79
2022/10/12 01:18:30;;;;;;;8.82;2.92;;;;;;;;;;5078774;28;20119;-79
2022/10/12 01:21:02;;;;;;;9.93;2.85;;;;;;;;;;5087381;28;20040;-78
2022/10/12 01:23:49;;;;;;;4.80;2.03;;;;;;;;;;5082209;28;20074;-78
2022/10/12 01:26:26;;;;;;;5.88;2.00;;;;;;;;;;5083594;28;20098;-78
2022/10/12 01:28:58;;;;;;;10.30;4.03;;;;;;;;;;5082664;28;20541;-78
2022/10/12 01:31:31;;;;;;;5.13;2.40;;;;;;;;;;5083001;28;20480;-78
2022/10/12 01:34:01;;;;;;;4.15;2.33;;;;;;;;;;5087313;28;20495;-77
2022/10/12 01:36:33;;;;;;;8.13;2.10;;;;;;;;;;5086737;28;20048;-77
2022/10/12 01:39:08;;;;;;;9.35;3.95;;;;;;;;;;5085649;28;20453;-77
2022/10/12 01:41:37;;;;;;;3.72;2.53;;;;;;;;;;5074949;28;20053;-78
2022/10/12 01:44:06;;;;;;;9.70;2.67;;;;;;;;;;5077477;28;20044;-77
2022/10/12 01:46:44;;;;;;;6.43;2.60;;;;;;;;;;5075884;28;20045;-76
2022/10/12 01:49:14;;;;;;;6.38;2.45;;;;;;;;;;5079381;28;20079;-78
2022/10/12 01:51:53;;;;;;;6.40;2.28;;;;;;;;;;5083104;28;20049;-77
2022/10/12 01:54:27;;;;;;;8.68;3.38;;;;;;;;;;5085030;28;20048;-78
2022/10/12 01:56:58;;;;;;;8.65;2.63;;;;;;;;;;5086128;28;20506;-77
2022/10/12 01:59:32;;;;;;;9.43;2.85;;;;;;;;;;5089816;28;20056;-78
2022/10/12 02:02:04;;;;;;;11.07;2.63;;;;;;;;;;5088684;28;20051;-78
2022/10/12 02:04:35;;;;;;;4.25;2.55;;;;;;;;;;5083992;28;20047;-78
2022/10/12 02:07:05;;;;;;;5.95;2.40;;;;;;;;;;5082401;28;20048;-77
2022/10/12 02:09:35;;;;;;;5.90;3.10;;;;;;;;;;5088819;28;20527;-76
2022/10/12 02:12:05;;;;;;;5.55;1.95;;;;;;;;;;5072202;28;20045;-77
2022/10/12 02:14:36;;;;;;;4.22;1.88;;;;;;;;;;5077861;28;20472;-78
2022/10/12 02:17:06;;;;;;;8.15;2.88;;;;;;;;;;5092150;28;20052;-78
2022/10/12 02:19:37;;;;;;;9.68;3.28;;;;;;;;;;5085188;28;20052;-78
2022/10/12 02:22:06;;;;;;;6.47;2.70;;;;;;;;;;5080058;28;20056;-78
2022/10/12 02:24:36;;;;;;;9.32;2.70;;;;;;;;;;5084917;28;20052;-77
2022/10/12 02:27:05;;;;;;;4.72;2.70;;;;;;;;;;5091005;28;20044;-78
2022/10/12 02:29:37;;;;;;;5.07;2.17;;;;;;;;;;5086444;28;20063;-78
2022/10/12 02:32:09;;;;;;;7.10;2.35;;;;;;;;;;5073899;28;20404;-78
2022/10/12 02:34:38;;;;;;;8.82;3.15;;;;;;;;;;5079738;28;20060;-78
2022/10/12 02:37:09;;;;;;;7.22;3.13;;;;;;;;;;5080198;28;20746;-77
2022/10/12 02:39:39;;;;;;;8.65;3.20;;;;;;;;;;5081863;28;20487;-78
2022/10/12 02:42:10;;;;;;;13.65;3.42;;;;;;;;;;5087534;28;20040;-78
2022/10/12 02:44:40;;;;;;;11.70;4.38;;;;;;;;;;5081476;28;20040;-78
2022/10/12 02:47:10;;;;;;;10.13;2.70;;;;;;;;;;5076468;28;20499;-77
2022/10/12 02:49:40;;;;;;;16.67;3.75;;;;;;;;;;5084939;28;20040;-77
2022/10/12 02:52:09;;;;;;;18.80;3.42;;;;;;;;;;5089916;28;20040;-78
2022/10/12 02:54:37;;;;;;;9.32;2.58;;;;;;;;;;5086373;28;20043;-76
2022/10/12 02:57:05;;;;;;;14.13;3.22;;;;;;;;;;5079551;28;20048;-77
2022/10/12 02:59:34;;;;;;;13.70;4.15;;;;;;;;;;5083672;28;20431;-78
2022/10/12 03:02:02;;;;;;;14.25;4.57;;;;;;;;;;5075878;28;20048;-78
2022/10/12 03:04:31;;;;;;;10.77;3.67;;;;;;;;;;5077308;28;20055;-78
2022/10/12 03:07:00;;;;;;;14.43;3.55;;;;;;;;;;5082588;28;20494;-78
2022/10/12 03:09:28;;;;;;;11.48;3.40;;;;;;;;;;5085006;28;20054;-78
2022/10/12 03:11:56;;;;;;;10.68;3.22;;;;;;;;;;5077480;28;20043;-78
2022/10/12 03:14:26;;;;;;;19.48;3.42;;;;;;;;;;5078666;28;20052;-77
2022/10/12 03:16:54;;;;;;;7.30;3.08;;;;;;;;;;5080324;28;20523;-78
2022/10/12 03:19:22;;;;;;;14.95;3.95;;;;;;;;;;5084028;28;20064;-77
2022/10/12 03:21:52;;;;;;;14.73;3.63;;;;;;;;;;5077155;28;20051;-77
2022/10/12 03:24:20;;;;;;;16.50;3.58;;;;;;;;;;5076430;28;20056;-78
2022/10/12 03:26:48;;;;;;;10.20;2.78;;;;;;;;;;5071096;28;20048;-78
2022/10/12 03:29:17;;;;;;;16.65;4.38;;;;;;;;;;5083708;28;20048;-78
2022/10/12 03:31:45;;;;;;;12.95;3.30;;;;;;;;;;5083558;28;20524;-78
2022/10/12 03:34:13;;;;;;;9.82;3.13;;;;;;;;;;5077622;28;20492;-78
2022/10/12 03:36:41;;;;;;;8.57;3.58;;;;;;;;;;5089748;28;20055;-76
2022/10/12 03:39:11;;;;;;;16.17;4.20;;;;;;;;;;5085054;28;20048;-77
2022/10/12 03:41:39;;;;;;;12.45;4.22;;;;;;;;;;5077904;28;20044;-78
2022/10/12 03:44:07;;;;;;;13.10;4.00;;;;;;;;;;5077102;28;20059;-78
2022/10/12 03:46:36;;;;;;;9.90;3.13;;;;;;;;;;5091902;28;20048;-78
2022/10/12 03:49:04;;;;;;;10.15;3.50;;;;;;;;;;5084777;28;20512;-78
2022/10/12 03:51:32;;;;;;;15.15;4.00;;;;;;;;;;5086194;28;20044;-78
2022/10/12 03:54:01;;;;;;;9.02;3.05;;;;;;;;;;5082906;28;20040;-78
2022/10/12 03:56:30;;;;;;;12.38;4.32;;;;;;;;;;5079149;28;20056;-77
2022/10/12 03:58:59;;;;;;;12.95;3.20;;;;;;;;;;5084826;28;20515;-78
2022/10/12 04:01:27;;;;;;;14.57;4.47;;;;;;;;;;5083180;28;20381;-78
2022/10/12 04:03:55;;;;;;;14.13;3.22;;;;;;;;;;5081819;28;20055;-78
2022/10/12 04:06:24;;;;;;;13.60;4.40;;;;;;;;;;5082841;28;20086;-77
2022/10/12 04:08:52;;;;;;;7.22;3.15;;;;;;;;;;5083189;28;20040;-78
2022/10/12 04:11:20;;;;;;;12.18;3.15;;;;;;;;;;5086890;28;20052;-78
2022/10/12 04:13:50;;;;;;;15.65;3.53;;;;;;;;;;5087749;28;20472;-78
2022/10/12 04:16:18;;;;;;;12.05;3.88;;;;;;;;;;5091404;28;20044;-78
2022/10/12 04:18:47;;;;;;;20.10;4.97;;;;;;;;;;5090170;28;20056;-78
2022/10/12 04:21:16;;;;;;;8.32;3.58;;;;;;;;;;5083657;28;20063;-78
2022/10/12 04:23:44;;;;;;;8.15;3.42;;;;;;;;;;5082474;28;20056;-78
2022/10/12 04:26:12;;;;;;;11.27;4.25;;;;;;;;;;5076461;28;20041;-78
2022/10/12 04:28:41;;;;;;;10.00;3.83;;;;;;;;;;5076384;28;20044;-77
2022/10/12 04:31:10;;;;;;;12.68;3.83;;;;;;;;;;5078008;28;20090;-78
2022/10/12 04:33:39;;;;;;;16.42;4.18;;;;;;;;;;5086304;28;20051;-78
2022/10/12 04:36:07;;;;;;;12.00;3.85;;;;;;;;;;5083898;28;20047;-77
2022/10/12 04:38:36;;;;;;;7.93;3.67;;;;;;;;;;5079798;28;20405;-78
2022/10/12 04:41:04;;;;;;;7.93;2.90;;;;;;;;;;5084995;28;20048;-77
2022/10/12 04:43:32;;;;;;;10.73;2.90;;;;;;;;;;5079303;28;20048;-78
2022/10/12 04:46:01;;;;;;;12.25;3.70;;;;;;;;;;5079442;28;20052;-78
2022/10/12 04:48:30;;;;;;;8.30;3.40;;;;;;;;;;5082930;28;20085;-78
2022/10/12 04:50:59;;;;;;;19.95;4.63;;;;;;;;;;5080363;28;20396;-76
2022/10/12 04:53:27;;;;;;;9.07;3.22;;;;;;;;;;5078434;28;20056;-77
2022/10/12 04:55:55;;;;;;;13.00;3.88;;;;;;;;;;5079701;28;20044;-77
2022/10/12 04:58:24;;;;;;;8.70;3.40;;;;;;;;;;5079068;28;20492;-77
2022/10/12 05:00:52;;;;;;;10.02;4.18;;;;;;;;;;5088263;28;20040;-77
2022/10/12 05:03:20;;;;;;;13.10;4.55;;;;;;;;;;5082205;28;20052;-77
2022/10/12 05:05:52;;;;;;;10.90;3.35;;;;;;;;;;5084489;28;20048;-77
2022/10/12 05:08:22;;;;;;;11.80;3.25;;;;;;;;;;5087783;28;20055;-77
2022/10/12 05:10:50;;;;;;;11.30;3.05;;;;;;;;;;5081069;28;20064;-76
2022/10/12 05:13:18;;;;;;;16.25;4.22;;;;;;;;;;5072442;28;20048;-78
2022/10/12 05:15:47;;;;;;;11.65;3.20;;;;;;;;;;5078503;28;20055;-77
2022/10/12 05:18:15;;;;;;;16.25;4.15;;;;;;;;;;5079364;28;20052;-78
2022/10/12 05:20:44;;;;;;;13.48;3.72;;;;;;;;;;5082612;28;20131;-78
2022/10/12 05:23:13;;;;;;;11.23;3.10;;;;;;;;;;5076105;28;20056;-77
2022/10/12 05:25:42;;;;;;;11.93;3.42;;;;;;;;;;5078989;28;20051;-78
2022/10/12 05:28:10;;;;;;;6.78;3.33;;;;;;;;;;5083144;28;20068;-78
2022/10/12 05:30:39;;;;;;;17.80;3.15;;;;;;;;;;5084124;28;20044;-77
2022/10/12 05:33:07;;;;;;;7.05;2.95;;;;;;;;;;5076825;28;20142;-78
2022/10/12 05:35:36;;;;;;;7.40;3.63;;;;;;;;;;5081217;28;20052;-79
2022/10/12 05:38:04;;;;;;;13.02;3.83;;;;;;;;;;5080678;28;20048;-78
2022/10/12 05:40:34;;;;;;;20.08;3.72;;;;;;;;;;5084118;28;20051;-78
2022/10/12 05:43:02;;;;;;;12.63;4.32;;;;;;;;;;5083633;28;20059;-77
2022/10/12 05:45:30;;;;;;;13.82;5.53;;;;;;;;;;5086632;28;20423;-79
2022/10/12 05:47:58;;;;;;;14.20;4.13;;;;;;;;;;5086209;28;20051;-79
2022/10/12 05:50:27;;;;;;;8.65;3.90;;;;;;;;;;5088865;28;20044;-78
2022/10/12 05:52:55;;;;;;;17.85;5.18;;;;;;;;;;5083681;28;20047;-79
2022/10/12 05:55:23;;;;;;;16.13;5.18;;;;;;;;;;5076538;28;20040;-77
2022/10/12 05:57:53;;;;;;;18.30;4.72;;;;;;;;;;5072695;28;20048;-76
2022/10/12 06:00:21;;;;;;;17.88;4.18;;;;;;;;;;5080727;28;20056;-76
2022/10/12 06:02:50;;;;;;;13.32;4.38;;;;;;;;;;5085961;28;20055;-77
2022/10/12 06:05:19;;;;;;;12.80;3.10;;;;;;;;;;5073283;28;20057;-77
2022/10/12 06:07:47;;;;;;;13.38;4.32;;;;;;;;;;5079771;28;20048;-77
2022/10/12 06:10:15;;;;;;;22.10;5.13;;;;;;;;;;5076294;28;20048;-77
2022/10/12 06:12:44;;;;;;;10.20;4.38;;;;;;;;;;5086151;28;20059;-77
2022/10/12 06:15:13;;;;;;;11.60;4.53;;;;;;;;;;5087992;28;20051;-77
2022/10/12 06:17:42;;;;;;;8.30;3.22;;;;;;;;;;5089377;28;20056;-76
2022/10/12 06:20:11;;;;;;;10.90;4.55;;;;;;;;;;5092618;28;20058;-77
2022/10/12 06:22:39;;;;;;;20.85;4.00;;;;;;;;;;5081051;28;20036;-77
2022/10/12 06:25:08;;;;;;;11.68;4.00;;;;;;;;;;5077460;28;20484;-77
2022/10/12 06:27:37;;;;;;;14.63;5.55;;;;;;;;;;5088946;28;20051;-77
2022/10/12 06:30:06;;;;;;;20.90;4.63;;;;;;;;;;5077666;28;20040;-78
2022/10/12 06:32:35;;;;;;;15.90;4.95;;;;;;;;;;5083490;28;20171;-77
2022/10/12 06:35:05;;;;;;;12.48;5.50;;;;;;;;;;5073035;28;20056;-77
2022/10/12 06:37:33;;;;;;;17.98;3.85;;;;;;;;;;5080502;28;20885;-78
2022/10/12 06:40:17;;;;;;;10.68;3.35;;;;;;;;;;5076897;28;20106;-78
2022/10/12 06:42:46;;;;;;;17.83;4.50;;;;;;;;;;5076198;28;20066;-77
2022/10/12 06:45:14;;;;;;;17.20;3.90;;;;;;;;;;5073302;28;20068;-78
2022/10/12 06:47:44;;;;;;;11.05;3.67;;;;;;;;;;5078403;28;20048;-78
2022/10/12 06:50:13;;;;;;;12.48;4.75;;;;;;;;;;5084213;28;20480;-76
2022/10/12 06:52:42;;;;;;;24.20;3.60;;;;;;;;;;5073512;28;20066;-77
2022/10/12 06:55:11;;;;;;;9.35;4.68;;;;;;;;;;5075126;28;20051;-78
2022/10/12 06:57:39;;;;;;;23.20;4.72;;;;;;;;;;5075351;28;20052;-78
2022/10/12 07:00:09;;;;;;;15.27;4.75;;;;;;;;;;5080481;28;20183;-78
2022/10/12 07:02:37;;;;;;;17.92;4.07;;;;;;;;;;5077055;28;20048;-78
2022/10/12 07:05:08;;;;;;;8.52;3.97;;;;;;;;;;5070772;28;20066;-78
2022/10/12 07:07:37;;;;;;;14.52;5.22;;;;;;;;;;5087393;28;20062;-77
2022/10/12 07:10:07;;;;;;;19.95;4.22;;;;;;;;;;5088823;28;20050;-78
2022/10/12 07:12:36;;;;;;;12.20;4.43;;;;;;;;;;5082003;28;20040;-77
2022/10/12 07:15:06;;;;;;;16.80;5.53;;;;;;;;;;5090721;28;20070;-78
2022/10/12 07:17:35;;;;;;;11.43;4.28;;;;;;;;;;5075176;28;20083;-77
2022/10/12 07:20:04;;;;;;;19.17;4.72;;;;;;;;;;5078149;28;20070;-77
2022/10/12 07:22:35;;;;;;;17.73;3.70;;;;;;;;;;5073187;28;20515;-79
2022/10/12 07:25:03;;;;;;;10.23;3.50;;;;;;;;;;5082767;28;20060;-79
2022/10/12 07:27:32;;;;;;;11.77;3.10;;;;;;;;;;5074231;28;20045;-78
2022/10/12 07:30:01;;;;;;;15.00;4.82;;;;;;;;;;5083939;28;20044;-79
2022/10/12 07:32:30;;;;;;;9.93;3.80;;;;;;;;;;5084072;28;20495;-77
2022/10/12 07:34:58;;;;;;;13.70;4.32;;;;;;;;;;5087586;28;20044;-79
2022/10/12 07:37:27;;;;;;;9.07;3.22;;;;;;;;;;5079369;28;20040;-78
2022/10/12 07:39:57;;;;;;;13.85;2.97;;;;;;;;;;5076389;28;20048;-79
2022/10/12 07:42:25;;;;;;;13.43;4.55;;;;;;;;;;5086716;28;20047;-78
2022/10/12 07:44:53;;;;;;;13.13;4.85;;;;;;;;;;5075251;28;20123;-78
2022/10/12 07:47:22;;;;;;;15.15;4.57;;;;;;;;;;5081792;28;20048;-78
2022/10/12 07:49:50;;;;;;;12.23;4.32;;;;;;;;;;5085929;28;20166;-78
2022/10/12 07:52:18;;;;;;;14.63;4.78;;;;;;;;;;5078488;28;20127;-80
2022/10/12 07:54:47;;;;;;;8.90;4.32;;;;;;;;;;5072275;28;20048;-79
2022/10/12 07:57:17;;;;;;;12.45;4.88;;;;;;;;;;5072648;28;20063;-78
2022/10/12 07:59:45;;;;;;;9.02;3.95;;;;;;;;;;5084898;28;20044;-80
2022/10/12 08:02:14;;;;;;;17.95;3.67;;;;;;;;;;5073035;28;20516;-79
2022/10/12 08:04:42;;;;;;;9.25;3.38;;;;;;;;;;5086320;28;20071;-79
2022/10/12 08:07:11;;;;;;;13.00;3.75;;;;;;;;;;5081629;28;20052;-78
2022/10/12 08:09:39;;;;;;;17.10;3.75;;;;;;;;;;5071351;28;20523;-78
2022/10/12 08:12:08;;;;;;;12.15;4.07;;;;;;;;;;5071751;28;20483;-79
2022/10/12 08:14:38;;;;;;;21.92;5.07;;;;;;;;;;5079361;28;20151;-79
2022/10/12 08:17:07;;;;;;;18.85;5.25;;;;;;;;;;5080944;28;20381;-77
2022/10/12 08:19:36;;;;;;;12.10;4.47;;;;;;;;;;5075824;28;20084;-79
2022/10/12 08:22:05;;;;;;;8.80;3.22;;;;;;;;;;5069010;28;20055;-79
2022/10/12 08:24:35;;;;;;;14.95;3.47;;;;;;;;;;5074177;28;20056;-79
2022/10/12 08:27:04;;;;;;;9.98;2.40;;;;;;;;;;5078983;28;20143;-79
2022/10/12 08:29:33;;;;;;;7.72;3.00;;;;;;;;;;5078164;28;20513;-79
2022/10/12 08:32:03;;;;;;;13.20;4.53;;;;;;;;;;5076465;28;20052;-79
2022/10/12 08:34:31;;;;;;;16.48;3.90;;;;;;;;;;5071353;28;20307;-80
2022/10/12 08:36:59;;;;;;;13.40;4.10;;;;;;;;;;5081112;28;20048;-79
2022/10/12 08:39:28;;;;;;;8.00;4.13;;;;;;;;;;5073688;28;20537;-79
2022/10/12 08:42:01;;;;;;;7.25;2.88;;;;;;;;;;5076155;28;20051;-79
2022/10/12 08:44:54;;;;;;;10.80;3.47;;;;;;;;;;5076841;28;20044;-79
2022/10/12 08:47:27;;;;;;;6.07;2.97;;;;;;;;;;5057082;28;20056;-79
2022/10/12 08:49:56;;;;;;;11.68;3.10;;;;;;;;;;5079476;28;20044;-77
2022/10/12 08:52:29;;;;;;;10.27;2.72;;;;;;;;;;5073554;28;20058;-77
2022/10/12 08:55:01;;;;;;;8.15;3.22;;;;;;;;;;5074648;28;20079;-77
2022/10/12 08:57:29;;;;;;;8.90;3.00;;;;;;;;;;5072133;28;20054;-77
2022/10/12 09:00:00;;;;;;;11.80;3.15;;;;;;;;;;5072081;28;20054;-77
2022/10/12 09:02:38;;;;;;;11.27;2.92;;;;;;;;;;5082637;28;20055;-77
2022/10/12 09:05:09;;;;;;;13.38;4.00;;;;;;;;;;5036317;28;1214834;-76
2022/10/12 09:07:39;;;;;;;13.00;3.15;;;;;;;;;;5087468;28;20499;-77
2022/10/12 09:10:13;;;;;;;13.18;3.50;;;;;;;;;;5072499;28;20048;-77
2022/10/12 09:12:46;;;;;;;8.60;2.67;;;;;;;;;;5081584;28;20539;-77
2022/10/12 09:15:17;;;;;;;6.88;3.92;;;;;;;;;;5078427;28;20082;-78
2022/10/12 09:17:48;;;;;;;20.60;3.88;;;;;;;;;;5075874;28;20074;-79
2022/10/12 09:20:18;;;;;;;15.73;3.33;;;;;;;;;;5077446;28;20105;-78
2022/10/12 09:22:48;;;;;;;5.82;2.65;;;;;;;;;;5083719;28;20054;-77
2022/10/12 09:25:18;;;;;;;8.95;3.25;;;;;;;;;;5072003;28;20051;-77
2022/10/12 09:27:47;;;;;;;9.57;3.47;;;;;;;;;;5077259;28;20547;-78
2022/10/12 09:30:16;;;;;;;13.40;3.78;;;;;;;;;;5073218;28;20057;-77
2022/10/12 09:32:55;;;;;;;9.82;2.47;;;;;;;;;;5078410;28;20048;-78
2022/10/12 09:35:24;;;;;;;11.82;3.38;;;;;;;;;;5077798;28;20044;-77
2022/10/12 09:37:54;;;;;;;12.23;3.50;;;;;;;;;;5074533;28;20054;-76
2022/10/12 09:40:24;;;;;;;5.82;2.17;;;;;;;;;;5073414;28;20126;-77
2022/10/12 09:42:53;;;;;;;10.90;2.78;;;;;;;;;;5080657;28;20045;-77
2022/10/12 09:45:22;;;;;;;8.85;3.00;;;;;;;;;;5080823;28;20059;-77
2022/10/12 09:48:11;;;;;;;9.57;3.65;;;;;;;;;;5077813;28;20060;-77
2022/10/12 09:50:42;;;;;;;9.25;3.25;;;;;;;;;;5075755;28;20041;-77
2022/10/12 09:53:15;;;;;;;17.13;4.68;;;;;;;;;;5077102;28;20389;-78
2022/10/12 09:55:52;;;;;;;13.27;3.85;;;;;;;;;;5080325;28;20415;-76
2022/10/12 09:58:21;;;;;;;10.23;3.50;;;;;;;;;;5079731;28;20522;-77
2022/10/12 10:01:05;;;;;;;7.68;3.13;;;;;;;;;;5081788;28;20044;-77
2022/10/12 10:03:34;;;;;;;13.23;3.55;;;;;;;;;;5070572;28;20048;-77
2022/10/12 10:06:05;;;;;;;12.68;3.58;;;;;;;;;;5081359;28;20044;-77
2022/10/12 10:08:40;;;;;;;8.88;3.00;;;;;;;;;;5082345;28;20090;-77
2022/10/12 10:11:14;;;;;;;8.50;3.80;;;;;;;;;;5077265;28;20496;-77
2022/10/12 10:13:47;;;;;;;3.28;1.75;;;;;;;;;;5075471;28;20052;-77
2022/10/12 10:16:16;;;;;;;9.35;2.90;;;;;;;;;;5074156;28;20332;-76
2022/10/12 10:18:48;;;;;;;12.23;2.50;;;;;;;;;;5076631;28;20048;-77
2022/10/12 10:21:24;;;;;;;6.90;3.45;;;;;;;;;;5082522;28;20051;-78
2022/10/12 10:23:54;;;;;;;9.45;3.90;;;;;;;;;;5076351;28;20555;-76
2022/10/12 10:26:24;;;;;;;11.38;3.13;;;;;;;;;;5079015;28;20056;-77
2022/10/12 10:28:56;;;;;;;7.15;2.30;;;;;;;;;;5080770;28;20093;-77
2022/10/12 10:31:26;;;;;;;11.90;2.28;;;;;;;;;;5080374;28;20051;-77
2022/10/12 10:34:10;;;;;;;9.98;2.80;;;;;;;;;;5079618;28;20581;-76
2022/10/12 10:36:41;;;;;;;8.20;2.85;;;;;;;;;;5074479;28;20493;-77
2022/10/12 10:39:17;;;;;;;7.55;1.95;;;;;;;;;;5076330;28;20488;-77
2022/10/12 10:41:45;;;;;;;4.97;2.30;;;;;;;;;;5076027;28;20051;-77
2022/10/12 10:44:21;;;;;;;5.20;2.40;;;;;;;;;;5082788;28;20816;-76
2022/10/12 10:46:49;;;;;;;6.40;1.83;;;;;;;;;;5071578;28;20083;-77
2022/10/12 10:49:24;;;;;;;8.77;3.35;;;;;;;;;;5076868;28;20048;-77
2022/10/12 10:51:55;;;;;;;6.33;2.33;;;;;;;;;;5078134;28;20048;-77
2022/10/12 10:54:28;;;;;;;5.88;2.70;;;;;;;;;;5086092;28;20812;-77
2022/10/12 10:57:02;;;;;;;5.05;2.55;;;;;;;;;;5076169;28;20536;-77
2022/10/12 10:59:35;;;;;;;5.43;2.42;;;;;;;;;;5074015;28;20446;-77
2022/10/12 11:02:09;;;;;;;5.88;2.15;;;;;;;;;;5072078;28;20475;-76
2022/10/12 11:04:40;;;;;;;5.30;3.35;;;;;;;;;;5081133;28;20064;-78
2022/10/12 11:07:15;;;;;;;5.10;2.55;;;;;;;;;;5074863;28;20043;-78
2022/10/12 11:09:45;;;;;;;5.40;2.45;;;;;;;;;;5078702;28;20040;-76
2022/10/12 11:12:15;;;;;;;5.93;2.17;;;;;;;;;;5076922;28;20113;-77
2022/10/12 11:14:45;;;;;;;9.50;4.10;;;;;;;;;;5074729;28;20404;-76
2022/10/12 11:17:14;;;;;;;6.53;2.55;;;;;;;;;;5080895;28;20058;-76
2022/10/12 11:19:48;;;;;;;5.82;1.92;;;;;;;;;;5074520;28;20322;-76
2022/10/12 11:22:20;;;;;;;9.00;2.80;;;;;;;;;;5071092;28;20044;-76
2022/10/12 11:24:52;;;;;;;10.35;3.22;;;;;;;;;;5081943;28;20522;-76
2022/10/12 11:27:22;;;;;;;5.30;2.63;;;;;;;;;;5071860;28;20211;-76
2022/10/12 11:29:52;;;;;;;6.88;2.00;;;;;;;;;;5080515;28;20452;-77
2022/10/12 11:32:37;;;;;;;6.18;2.30;;;;;;;;;;5077965;28;20047;-77
2022/10/12 11:35:06;;;;;;;4.88;1.65;;;;;;;;;;5077726;28;20508;-77
2022/10/12 11:37:39;;;;;;;6.18;2.67;;;;;;;;;;5069725;28;20139;-77
2022/10/12 11:40:09;;;;;;;12.68;3.03;;;;;;;;;;5069267;28;20045;-77
2022/10/12 11:42:40;;;;;;;9.00;2.90;;;;;;;;;;5074170;28;20102;-76
2022/10/12 11:45:18;;;;;;;8.68;2.55;;;;;;;;;;5072089;28;20445;-77
2022/10/12 11:47:48;;;;;;;7.90;3.00;;;;;;;;;;5072509;28;20052;-76
2022/10/12 11:50:21;;;;;;;6.85;2.95;;;;;;;;;;5082295;28;20485;-75
2022/10/12 11:52:52;;;;;;;7.07;2.35;;;;;;;;;;5078068;28;20060;-75
2022/10/12 11:55:35;;;;;;;5.03;2.10;;;;;;;;;;5075305;28;20139;-76
2022/10/12 11:58:07;;;;;;;8.02;2.30;;;;;;;;;;5075771;28;20076;-78
2022/10/12 12:00:45;;;;;;;5.70;2.45;;;;;;;;;;5078703;28;20042;-81
2022/10/12 12:03:18;;;;;;;5.20;2.35;;;;;;;;;;5079125;28;20059;-79
2022/10/12 12:05:47;;;;;;;5.93;2.47;;;;;;;;;;5077717;28;20051;-79
2022/10/12 12:08:23;;;;;;;8.93;2.15;;;;;;;;;;5071845;28;20182;-75
2022/10/12 12:11:04;;;;;;;5.68;2.88;;;;;;;;;;5073674;28;20053;-74
2022/10/12 12:13:32;;;;;;;6.03;2.42;;;;;;;;;;5077987;28;20044;-76
2022/10/12 12:16:28;;;;;;;4.57;2.28;;;;;;;;;;5075796;28;20496;-76
2022/10/12 12:19:16;;;;;;;6.45;2.33;;;;;;;;;;5071531;28;20037;-76
2022/10/12 12:22:03;;;;;;;8.35;2.38;;;;;;;;;;5081845;28;20090;-76
2022/10/12 12:24:33;;;;;;;8.90;3.08;;;;;;;;;;5085771;28;20048;-76
2022/10/12 12:27:02;;;;;;;6.72;3.03;;;;;;;;;;5078951;28;20496;-76
2022/10/12 12:29:30;;;;;;;5.35;2.58;;;;;;;;;;5075259;28;20040;-76
2022/10/12 12:31:59;;;;;;;6.55;1.98;;;;;;;;;;5078865;28;20076;-76
2022/10/12 12:34:28;;;;;;;5.18;2.22;;;;;;;;;;5086850;28;20048;-75
2022/10/12 12:36:57;;;;;;;5.10;1.80;;;;;;;;;;5075777;28;20127;-77
2022/10/12 12:39:29;;;;;;;8.77;3.55;;;;;;;;;;5076096;28;20044;-79
2022/10/12 12:41:59;;;;;;;17.05;2.53;;;;;;;;;;5075219;28;20044;-79
2022/10/12 12:44:39;;;;;;;9.15;2.45;;;;;;;;;;5076011;28;20056;-75
2022/10/12 12:47:19;;;;;;;5.78;2.58;;;;;;;;;;5071641;28;20455;-77
2022/10/12 12:50:26;;;;;;;10.77;2.50;;;;;;;;;;5084899;28;20419;-76
2022/10/12 12:52:58;;;;;;;8.13;2.88;;;;;;;;;;5074398;28;20041;-78
2022/10/12 12:55:36;;;;;;;7.88;2.28;;;;;;;;;;5079633;28;20051;-77
2022/10/12 12:58:10;;;;;;;5.78;2.65;;;;;;;;;;5084258;28;20048;-77
2022/10/12 13:00:46;;;;;;;4.32;2.78;;;;;;;;;;5083856;28;20040;-77
2022/10/12 13:03:42;;;;;;;5.70;2.17;;;;;;;;;;5075685;28;20119;-78
2022/10/12 13:06:25;;;;;;;7.40;2.63;;;;;;;;;;5082954;28;20080;-77
2022/10/12 13:09:10;;;;;;;5.93;2.67;;;;;;;;;;5080246;28;20051;-76
2022/10/12 13:11:47;;;;;;;3.00;2.35;;;;;;;;;;5080347;28;20579;-76
2022/10/12 13:14:33;;;;;;;8.82;2.60;;;;;;;;;;5078539;28;20052;-76
2022/10/12 13:17:10;;;;;;;5.57;2.78;;;;;;;;;;5061219;28;20080;-78
2022/10/12 13:20:16;;;;;;;5.30;2.67;;;;;;;;;;5079600;28;20036;-78
2022/10/12 13:22:45;;;;;;;6.95;1.98;;;;;;;;;;5078838;28;20976;-77
2022/10/12 13:25:16;;;;;;;5.97;2.70;;;;;;;;;;5082159;28;20054;-77
2022/10/12 13:27:47;;;;;;;4.50;2.00;;;;;;;;;;5079897;28;20101;-77
2022/10/12 13:30:29;;;;;;;6.95;2.88;;;;;;;;;;5079206;28;20467;-78
2022/10/12 13:33:02;;;;;;;5.07;2.63;;;;;;;;;;5080386;28;20053;-78
2022/10/12 13:35:34;;;;;;;4.85;2.03;;;;;;;;;;5086580;28;20127;-77
2022/10/12 13:38:04;;;;;;;15.15;2.70;;;;;;;;;;5081907;28;20048;-78
2022/10/12 13:40:33;;;;;;;6.25;1.95;;;;;;;;;;5075058;28;20122;-77
2022/10/12 13:43:16;;;;;;;5.30;1.75;;;;;;;;;;5076570;28;20479;-78
2022/10/12 13:45:45;;;;;;;8.98;2.10;;;;;;;;;;5062366;28;20105;-78
2022/10/12 13:48:18;;;;;;;3.00;2.00;;;;;;;;;;5072104;28;20128;-77
2022/10/12 13:51:19;;;;;;;5.28;2.60;;;;;;;;;;5084185;28;20048;-78
2022/10/12 13:53:48;;;;;;;5.80;2.53;;;;;;;;;;5079431;28;20400;-78
2022/10/12 13:56:18;;;;;;;6.60;2.50;;;;;;;;;;5071913;28;20044;-78
2022/10/12 13:58:47;;;;;;;10.13;2.53;;;;;;;;;;5073300;28;20126;-78
2022/10/12 14:01:15;;;;;;;12.80;2.75;;;;;;;;;;5072529;28;20049;-78
2022/10/12 14:03:45;;;;;;;8.55;3.45;;;;;;;;;;5075692;28;20048;-78
2022/10/12 14:06:28;;;;;;;8.85;2.20;;;;;;;;;;5071426;28;20469;-78
2022/10/12 14:08:57;;;;;;;3.90;1.90;;;;;;;;;;5082029;28;20538;-77
2022/10/12 14:11:27;;;;;;;6.05;2.78;;;;;;;;;;5074148;28;20052;-75
2022/10/12 14:13:56;;;;;;;5.25;2.42;;;;;;;;;;5073691;28;20070;-76
2022/10/12 14:16:24;;;;;;;4.85;2.30;;;;;;;;;;5087881;28;20051;-75
2022/10/12 14:18:54;;;;;;;7.07;2.85;;;;;;;;;;5080936;28;20045;-76
2022/10/12 14:21:24;;;;;;;5.32;2.92;;;;;;;;;;5069019;28;20501;-76
2022/10/12 14:23:53;;;;;;;4.85;1.67;;;;;;;;;;5077984;28;20086;-75
2022/10/12 14:26:30;;;;;;;4.63;2.30;;;;;;;;;;5069738;28;20424;-77
2022/10/12 14:28:59;;;;;;;6.15;2.05;;;;;;;;;;5067153;28;20093;-76
2022/10/12 14:31:46;;;;;;;7.03;2.38;;;;;;;;;;5071493;28;20036;-77
2022/10/12 14:34:36;;;;;;;9.13;2.53;;;;;;;;;;5075919;28;20424;-76
2022/10/12 14:37:06;;;;;;;5.78;2.22;;;;;;;;;;5072853;28;20045;-77
2022/10/12 14:39:34;;;;;;;8.02;3.42;;;;;;;;;;5077442;28;20048;-77
2022/10/12 14:42:04;;;;;;;13.85;2.97;;;;;;;;;;5071660;28;20049;-77
2022/10/12 14:44:42;;;;;;;5.47;1.90;;;;;;;;;;5071562;28;20052;-78
2022/10/12 14:47:16;;;;;;;8.40;3.00;;;;;;;;;;5081068;28;20090;-77
2022/10/12 14:49:46;;;;;;;7.07;2.97;;;;;;;;;;5073962;28;20070;-78
2022/10/12 14:52:18;;;;;;;10.65;3.20;;;;;;;;;;5086986;28;20470;-76
2022/10/12 14:54:50;;;;;;;4.95;2.47;;;;;;;;;;5091413;28;20052;-78
2022/10/12 14:57:19;;;;;;;7.57;3.30;;;;;;;;;;5078334;28;20053;-77
2022/10/12 14:59:48;;;;;;;7.78;2.92;;;;;;;;;;5073738;28;20048;-77
2022/10/12 15:02:17;;;;;;;10.93;2.80;;;;;;;;;;5082946;28;20074;-78